Terminal Aerodrome Forecast
Issued by NWS Buffalo, NY

Home | Current Version | Previous Version | Text Only | Print | Product List | Glossary On
Versions: 1 2 3 4 5 6 7 8 9 10 11 12 13 14 15 16 17 18 19 20 21 22 23 24
000
FTUS41 KBUF 191100
TAFBUF
TAF
KBUF 191130Z 1912/2012 32005KT P6SM SKC
     FM191500 01011KT P6SM SKC
     FM192300 05007KT P6SM FEW250
     FM200200 10006KT P6SM FEW200
     FM200600 14006KT P6SM FEW100=

USA.gov is the U.S. government's official web portal to all federal, state and local government web resources and services.